Time;durP1;ratioP1;P1;durP2;ratioP2;P2;SDS_P1;SDS_P2;PMS_P1;PMS_P2;Temp;Humidity;BMP_temperature;BMP_pressure;BME280_temperature;BME280_humidity;BME280_pressure;Samples;Min_cycle;Max_cycle;Signal;HPM_P1;HPM_P2
2021/01/28 00:01:08;;;;;;;18.30;2.55;;;;;;;;;;5046816;28;20083;-79
2021/01/28 00:03:35;;;;;;;31.45;4.03;;;;;;;;;;5049289;28;20047;-81
2021/01/28 00:06:02;;;;;;;25.13;3.85;;;;;;;;;;5045754;28;20037;-82
2021/01/28 00:08:29;;;;;;;17.10;2.45;;;;;;;;;;5049394;28;20090;-81
2021/01/28 00:10:56;;;;;;;18.70;2.58;;;;;;;;;;5045759;28;20589;-81
2021/01/28 00:13:23;;;;;;;20.23;4.03;;;;;;;;;;5019894;28;20048;-83
2021/01/28 00:15:50;;;;;;;22.13;3.10;;;;;;;;;;5045052;28;20037;-82
2021/01/28 00:18:18;;;;;;;18.90;2.88;;;;;;;;;;5024650;28;20068;-81
2021/01/28 00:20:46;;;;;;;20.38;3.35;;;;;;;;;;5037714;28;20026;-82
2021/01/28 00:23:14;;;;;;;20.08;2.88;;;;;;;;;;5042695;28;20029;-80
2021/01/28 00:25:41;;;;;;;29.90;3.58;;;;;;;;;;5047354;28;20112;-82
2021/01/28 00:28:11;;;;;;;24.50;2.65;;;;;;;;;;5050835;28;20334;-82
2021/01/28 00:30:40;;;;;;;15.30;2.30;;;;;;;;;;5043477;28;20037;-83
2021/01/28 00:33:07;;;;;;;20.08;2.28;;;;;;;;;;5040612;28;20057;-81
2021/01/28 00:35:36;;;;;;;19.23;2.60;;;;;;;;;;5016463;28;22267;-82
2021/01/28 00:38:04;;;;;;;20.88;2.58;;;;;;;;;;5046172;28;20037;-83
2021/01/28 00:40:32;;;;;;;17.95;2.38;;;;;;;;;;5052714;28;20087;-82
2021/01/28 00:42:59;;;;;;;19.02;2.83;;;;;;;;;;5082027;22;20062;-81
2021/01/28 00:45:28;;;;;;;22.55;3.08;;;;;;;;;;5066621;22;20024;-80
2021/01/28 00:47:55;;;;;;;25.55;3.35;;;;;;;;;;5015490;28;20110;-83
2021/01/28 00:50:27;;;;;;;14.55;2.33;;;;;;;;;;5040730;22;20045;-81
2021/01/28 00:52:54;;;;;;;17.23;2.22;;;;;;;;;;5033357;28;20032;-83
2021/01/28 00:55:21;;;;;;;22.10;4.88;;;;;;;;;;5034608;28;20065;-88
2021/01/28 00:57:49;;;;;;;19.40;2.65;;;;;;;;;;5035952;28;20039;-80
2021/01/28 01:00:23;;;;;;;19.95;2.80;;;;;;;;;;5056135;22;20053;-82
2021/01/28 01:02:50;;;;;;;16.70;2.92;;;;;;;;;;5049788;28;20091;-82
2021/01/28 01:05:18;;;;;;;16.65;2.33;;;;;;;;;;5035019;28;20026;-82
2021/01/28 01:07:46;;;;;;;16.67;2.53;;;;;;;;;;5049599;28;20029;-82
2021/01/28 01:10:22;;;;;;;12.70;3.13;;;;;;;;;;5043619;28;20036;-82
2021/01/28 01:12:49;;;;;;;17.33;2.92;;;;;;;;;;5054427;28;20029;-81
2021/01/28 01:15:16;;;;;;;12.77;3.58;;;;;;;;;;5056506;22;20056;-82
2021/01/28 01:17:43;;;;;;;14.35;2.40;;;;;;;;;;5031767;28;20072;-80
2021/01/28 01:20:11;;;;;;;17.17;2.90;;;;;;;;;;5054972;28;20120;-80
2021/01/28 01:22:38;;;;;;;15.63;2.33;;;;;;;;;;5052860;28;20032;-81
2021/01/28 01:25:05;;;;;;;13.32;2.50;;;;;;;;;;5032126;28;20034;-81
2021/01/28 01:27:33;;;;;;;16.05;1.75;;;;;;;;;;5050958;28;20598;-81
2021/01/28 01:30:00;;;;;;;14.95;2.38;;;;;;;;;;5054776;28;20034;-83
2021/01/28 01:32:27;;;;;;;15.50;2.78;;;;;;;;;;5052542;28;20021;-81
2021/01/28 01:34:54;;;;;;;14.25;2.25;;;;;;;;;;5051938;28;20037;-82
2021/01/28 01:37:21;;;;;;;17.25;2.17;;;;;;;;;;5048107;28;20041;-80
2021/01/28 01:39:48;;;;;;;10.93;2.83;;;;;;;;;;5034982;28;20076;-79
2021/01/28 01:42:15;;;;;;;20.23;3.75;;;;;;;;;;5049545;28;20029;-77
2021/01/28 01:44:42;;;;;;;12.93;2.70;;;;;;;;;;5052380;28;20048;-79
2021/01/28 01:47:18;;;;;;;23.27;3.10;;;;;;;;;;5050592;28;20036;-80
2021/01/28 01:49:46;;;;;;;17.00;2.45;;;;;;;;;;5041912;22;20049;-80
2021/01/28 01:52:14;;;;;;;14.70;2.30;;;;;;;;;;5048753;28;20052;-83
2021/01/28 01:54:44;;;;;;;17.30;2.88;;;;;;;;;;5050521;28;20041;-78
2021/01/28 01:57:15;;;;;;;16.92;2.83;;;;;;;;;;5032197;28;20476;-83
2021/01/28 02:00:05;;;;;;;16.20;2.97;;;;;;;;;;5032123;28;20029;-82
2021/01/28 02:02:34;;;;;;;17.33;3.03;;;;;;;;;;5028174;28;20037;-81
2021/01/28 02:05:06;;;;;;;21.17;2.78;;;;;;;;;;5034937;28;20037;-81
2021/01/28 02:07:33;;;;;;;18.73;2.67;;;;;;;;;;5031689;28;20037;-82
2021/01/28 02:10:00;;;;;;;14.80;2.90;;;;;;;;;;5015693;28;20037;-81
2021/01/28 02:12:28;;;;;;;16.10;1.85;;;;;;;;;;5034513;28;20512;-82
2021/01/28 02:14:55;;;;;;;16.08;2.63;;;;;;;;;;5043235;28;20048;-81
2021/01/28 02:17:24;;;;;;;20.42;2.92;;;;;;;;;;5043461;28;20041;-83
2021/01/28 02:19:54;;;;;;;16.48;2.70;;;;;;;;;;5034157;28;20440;-83
2021/01/28 02:22:36;;;;;;;21.40;3.67;;;;;;;;;;5033810;28;20042;-90
2021/01/28 02:25:19;;;;;;;16.42;2.30;;;;;;;;;;5035301;28;20182;-88
2021/01/28 02:27:46;;;;;;;15.57;2.00;;;;;;;;;;5033550;28;20040;-86
2021/01/28 02:30:15;;;;;;;15.52;2.85;;;;;;;;;;5034000;28;20037;-86
2021/01/28 02:32:42;;;;;;;10.02;2.13;;;;;;;;;;5053327;28;20059;-88
2021/01/28 02:35:10;;;;;;;17.05;2.55;;;;;;;;;;5053769;28;20043;-88
2021/01/28 02:37:37;;;;;;;15.70;1.63;;;;;;;;;;5044193;28;20049;-84
2021/01/28 02:40:04;;;;;;;15.93;2.40;;;;;;;;;;5050498;28;20120;-86
2021/01/28 02:42:32;;;;;;;20.17;2.85;;;;;;;;;;5035343;28;20033;-83
2021/01/28 02:44:59;;;;;;;14.57;2.85;;;;;;;;;;5033703;28;20042;-86
2021/01/28 02:47:27;;;;;;;14.07;1.92;;;;;;;;;;5037719;28;20036;-85
2021/01/28 02:49:54;;;;;;;15.75;2.95;;;;;;;;;;5049069;22;20076;-88
2021/01/28 02:52:21;;;;;;;16.65;1.75;;;;;;;;;;5060049;23;20077;-89
2021/01/28 02:54:52;;;;;;;13.95;2.08;;;;;;;;;;5055838;22;20049;-85
2021/01/28 10:16:52;;;;;;;32.30;4.00;;;;;;;;;;1418862;22;20124;-81
2021/01/28 10:19:19;;;;;;;21.75;3.88;;;;;;;;;;5032517;28;20132;-82
2021/01/28 10:21:47;;;;;;;31.42;4.60;;;;;;;;;;5033292;28;20100;-82
2021/01/28 10:24:14;;;;;;;25.13;3.10;;;;;;;;;;5033188;28;20102;-82
2021/01/28 10:26:41;;;;;;;24.13;3.58;;;;;;;;;;5015442;28;20040;-81
2021/01/28 10:29:08;;;;;;;23.30;3.63;;;;;;;;;;5025640;28;20099;-81
2021/01/28 10:31:35;;;;;;;23.90;3.83;;;;;;;;;;5029924;28;20030;-81
2021/01/28 10:34:02;;;;;;;30.70;5.82;;;;;;;;;;5032294;28;20034;-81
2021/01/28 10:36:29;;;;;;;23.67;3.05;;;;;;;;;;5031244;28;20531;-81
2021/01/28 10:38:57;;;;;;;29.85;3.90;;;;;;;;;;5029015;28;20120;-81
2021/01/28 10:41:24;;;;;;;33.30;3.63;;;;;;;;;;5031806;28;20036;-81
2021/01/28 10:43:51;;;;;;;33.33;4.95;;;;;;;;;;5032680;28;20056;-81
2021/01/28 10:46:19;;;;;;;28.83;4.53;;;;;;;;;;5028875;28;20021;-80
2021/01/28 10:48:46;;;;;;;31.73;4.32;;;;;;;;;;5028893;28;20033;-81
2021/01/28 10:51:13;;;;;;;21.55;3.08;;;;;;;;;;5030619;28;20037;-81
2021/01/28 10:53:40;;;;;;;23.13;4.07;;;;;;;;;;5026393;28;20510;-81
2021/01/28 10:56:07;;;;;;;25.33;4.25;;;;;;;;;;5032078;28;20080;-81
2021/01/28 10:58:35;;;;;;;32.80;4.45;;;;;;;;;;5032313;28;20029;-81
2021/01/28 11:01:02;;;;;;;31.98;5.13;;;;;;;;;;5032247;28;20083;-81
2021/01/28 11:03:29;;;;;;;32.90;4.18;;;;;;;;;;5027294;28;20033;-81
2021/01/28 11:05:58;;;;;;;32.60;4.05;;;;;;;;;;5013060;28;20037;-81
2021/01/28 11:08:27;;;;;;;29.55;5.20;;;;;;;;;;5016907;28;20120;-80
2021/01/28 11:10:55;;;;;;;29.60;4.55;;;;;;;;;;5030862;28;20038;-81
2021/01/28 11:13:22;;;;;;;45.10;5.88;;;;;;;;;;5032596;28;20113;-80
2021/01/28 11:15:49;;;;;;;26.42;4.53;;;;;;;;;;5032526;28;20062;-81
2021/01/28 11:18:16;;;;;;;31.33;4.20;;;;;;;;;;5053390;22;20064;-81
2021/01/28 11:20:43;;;;;;;24.55;3.88;;;;;;;;;;5067099;22;20103;-81
2021/01/28 11:23:10;;;;;;;32.65;4.00;;;;;;;;;;5051588;28;20045;-81
2021/01/28 11:25:37;;;;;;;35.13;5.90;;;;;;;;;;5063960;22;20348;-81
2021/01/28 11:28:05;;;;;;;30.73;4.88;;;;;;;;;;5030020;28;20419;-81
2021/01/28 11:30:33;;;;;;;28.88;3.83;;;;;;;;;;5014021;28;20037;-81
2021/01/28 11:33:00;;;;;;;29.02;4.65;;;;;;;;;;5031743;28;20033;-81
2021/01/28 11:35:31;;;;;;;31.40;5.07;;;;;;;;;;5064367;22;20084;-81
2021/01/28 11:38:01;;;;;;;35.03;5.60;;;;;;;;;;5046892;28;20033;-81
2021/01/28 11:40:29;;;;;;;34.65;5.00;;;;;;;;;;5069607;28;20435;-81
2021/01/28 11:42:56;;;;;;;33.10;4.28;;;;;;;;;;5067738;28;20116;-81
2021/01/28 11:45:28;;;;;;;36.63;5.40;;;;;;;;;;5071610;28;20063;-81
2021/01/28 11:47:56;;;;;;;28.00;4.05;;;;;;;;;;5070896;28;20051;-81
2021/01/28 11:50:23;;;;;;;27.42;4.95;;;;;;;;;;5066933;28;20047;-81
2021/01/28 11:52:50;;;;;;;27.83;4.30;;;;;;;;;;5088117;22;20056;-81
2021/01/28 11:55:19;;;;;;;28.67;4.38;;;;;;;;;;5068474;28;20123;-81
2021/01/28 11:57:46;;;;;;;33.97;5.50;;;;;;;;;;5054775;28;20122;-81
2021/01/28 12:00:14;;;;;;;33.63;5.38;;;;;;;;;;5051105;28;20123;-81
2021/01/28 12:02:42;;;;;;;27.23;4.72;;;;;;;;;;5033167;28;20376;-81
2021/01/28 12:05:11;;;;;;;28.92;5.05;;;;;;;;;;5051802;28;20064;-81
2021/01/28 12:07:38;;;;;;;28.83;4.35;;;;;;;;;;5051567;28;20036;-82
2021/01/28 12:10:07;;;;;;;30.67;5.30;;;;;;;;;;5050433;28;20041;-81
2021/01/28 12:12:34;;;;;;;31.88;4.82;;;;;;;;;;5051375;28;20082;-82
2021/01/28 12:15:01;;;;;;;28.52;5.25;;;;;;;;;;5051322;28;20112;-82
2021/01/28 12:17:28;;;;;;;26.55;4.50;;;;;;;;;;5050671;28;20044;-82
2021/01/28 12:19:55;;;;;;;28.80;4.70;;;;;;;;;;5050959;28;20041;-82
2021/01/28 12:22:22;;;;;;;23.90;3.42;;;;;;;;;;5051747;28;20135;-82
2021/01/28 12:24:49;;;;;;;23.88;4.30;;;;;;;;;;5077547;22;20049;-82
2021/01/28 12:27:17;;;;;;;26.25;4.18;;;;;;;;;;5070929;28;20052;-81
2021/01/28 12:29:44;;;;;;;21.38;3.92;;;;;;;;;;5063307;28;20083;-82
2021/01/28 12:32:11;;;;;;;33.25;3.58;;;;;;;;;;5037458;28;20083;-81
2021/01/28 12:34:39;;;;;;;18.40;2.47;;;;;;;;;;5055857;28;20032;-82
2021/01/28 12:37:07;;;;;;;15.60;2.85;;;;;;;;;;5070799;28;20040;-82
2021/01/28 12:39:34;;;;;;;26.65;4.13;;;;;;;;;;5065214;28;20036;-82
2021/01/28 12:42:01;;;;;;;20.83;4.47;;;;;;;;;;5048318;28;20048;-81
2021/01/28 12:44:28;;;;;;;20.88;2.95;;;;;;;;;;5068316;28;20056;-82
2021/01/28 12:46:55;;;;;;;21.50;3.10;;;;;;;;;;5074965;28;20025;-82
2021/01/28 12:49:23;;;;;;;19.73;2.85;;;;;;;;;;5051108;28;20046;-82
2021/01/28 12:51:53;;;;;;;16.75;3.03;;;;;;;;;;5068530;28;20037;-82
2021/01/28 12:54:23;;;;;;;23.63;3.25;;;;;;;;;;5055032;28;20044;-82
2021/01/28 12:56:50;;;;;;;24.65;4.00;;;;;;;;;;5072111;28;20123;-82
2021/01/28 12:59:18;;;;;;;21.20;3.78;;;;;;;;;;5050935;28;20115;-82
2021/01/28 13:01:45;;;;;;;26.73;3.20;;;;;;;;;;5060656;28;20041;-82
2021/01/28 13:04:12;;;;;;;25.25;3.83;;;;;;;;;;5054865;28;20095;-82
2021/01/28 13:06:39;;;;;;;22.90;3.22;;;;;;;;;;5055935;28;20063;-82
2021/01/28 13:09:06;;;;;;;21.75;2.85;;;;;;;;;;5057637;28;20095;-82
2021/01/28 13:11:33;;;;;;;23.65;4.32;;;;;;;;;;5074047;28;20032;-82
2021/01/28 13:14:00;;;;;;;24.73;3.33;;;;;;;;;;5072417;28;20063;-82
2021/01/28 13:16:28;;;;;;;18.23;2.22;;;;;;;;;;5054652;28;20103;-82
2021/01/28 13:18:55;;;;;;;19.02;3.35;;;;;;;;;;5065986;28;20040;-82
2021/01/28 13:21:22;;;;;;;20.08;3.60;;;;;;;;;;5060502;28;20058;-82
2021/01/28 13:23:49;;;;;;;21.63;3.25;;;;;;;;;;5054507;28;20033;-82
2021/01/28 13:39:15;;;;;;;22.27;2.58;;;;;;;;;;1506141;26;20049;-83
2021/01/28 13:41:42;;;;;;;18.88;2.78;;;;;;;;;;5043432;22;20065;-82
2021/01/28 13:44:10;;;;;;;19.30;3.15;;;;;;;;;;5033551;28;20042;-83
2021/01/28 13:46:37;;;;;;;19.60;3.30;;;;;;;;;;5049258;28;20044;-83
2021/01/28 13:49:04;;;;;;;24.50;2.65;;;;;;;;;;5032293;28;20044;-82
2021/01/28 13:51:31;;;;;;;24.25;3.45;;;;;;;;;;5031047;28;20026;-83
2021/01/28 13:53:58;;;;;;;21.50;3.63;;;;;;;;;;5032921;28;20116;-83
2021/01/28 13:56:26;;;;;;;30.27;3.92;;;;;;;;;;5033990;28;20064;-84
2021/01/28 13:58:54;;;;;;;20.08;3.30;;;;;;;;;;5041467;22;20053;-85
2021/01/28 14:01:21;;;;;;;23.67;3.83;;;;;;;;;;5033534;28;20041;-84
2021/01/28 14:03:48;;;;;;;19.67;2.78;;;;;;;;;;5033512;28;20045;-85
2021/01/28 14:06:15;;;;;;;25.52;3.45;;;;;;;;;;5033546;28;20037;-84
2021/01/28 14:08:42;;;;;;;20.30;3.30;;;;;;;;;;5025646;28;20041;-85
2021/01/28 14:11:09;;;;;;;16.15;2.92;;;;;;;;;;4998005;28;20034;-85
2021/01/28 14:13:36;;;;;;;16.02;2.15;;;;;;;;;;5014435;28;20533;-85
2021/01/28 14:16:03;;;;;;;16.20;3.28;;;;;;;;;;5001503;28;20045;-84
2021/01/28 14:18:30;;;;;;;15.57;1.70;;;;;;;;;;5007448;28;20044;-85
2021/01/28 14:20:57;;;;;;;10.00;1.17;;;;;;;;;;5014335;28;20033;-85
2021/01/28 14:23:24;;;;;;;7.60;1.30;;;;;;;;;;5006678;28;20183;-84
2021/01/28 14:25:51;;;;;;;6.35;1.58;;;;;;;;;;5007048;28;20548;-85
2021/01/28 14:28:19;;;;;;;14.05;1.83;;;;;;;;;;5014448;28;20050;-84
2021/01/28 14:30:46;;;;;;;7.25;1.08;;;;;;;;;;5002031;28;20044;-85
2021/01/28 14:33:13;;;;;;;7.45;0.60;;;;;;;;;;5085066;22;20060;-85
2021/01/28 14:35:42;;;;;;;10.82;1.10;;;;;;;;;;5055480;28;20048;-85
2021/01/28 14:38:09;;;;;;;15.52;1.45;;;;;;;;;;5071099;28;20032;-85
2021/01/28 14:40:37;;;;;;;11.32;2.15;;;;;;;;;;5035883;28;20061;-85
2021/01/28 14:43:04;;;;;;;10.88;1.88;;;;;;;;;;5062465;28;20036;-85
2021/01/28 14:45:32;;;;;;;9.43;1.70;;;;;;;;;;5050122;28;20024;-84
2021/01/28 14:47:59;;;;;;;14.30;2.17;;;;;;;;;;5061710;28;20044;-85
2021/01/28 14:50:26;;;;;;;12.20;1.60;;;;;;;;;;5071416;28;20032;-85
2021/01/28 14:52:54;;;;;;;14.68;2.08;;;;;;;;;;5053439;28;20029;-85
2021/01/28 14:55:21;;;;;;;13.75;1.38;;;;;;;;;;5072228;28;20025;-85
2021/01/28 14:57:49;;;;;;;13.90;2.45;;;;;;;;;;5046626;28;20128;-85
2021/01/28 15:00:16;;;;;;;9.63;1.67;;;;;;;;;;5053625;28;20083;-85
2021/01/28 15:02:43;;;;;;;7.03;0.93;;;;;;;;;;5063512;28;20116;-84
2021/01/28 15:05:12;;;;;;;15.48;1.60;;;;;;;;;;5070511;28;20033;-85
2021/01/28 15:07:39;;;;;;;8.77;1.50;;;;;;;;;;5062175;28;20051;-85
2021/01/28 15:10:06;;;;;;;9.32;1.48;;;;;;;;;;5072942;28;20489;-84
2021/01/28 15:12:33;;;;;;;9.20;1.10;;;;;;;;;;5070030;28;20025;-84
2021/01/28 15:15:01;;;;;;;9.38;1.50;;;;;;;;;;5055036;28;20521;-84
2021/01/28 15:17:28;;;;;;;11.40;2.30;;;;;;;;;;5066114;28;20041;-84
2021/01/28 15:19:55;;;;;;;15.15;2.67;;;;;;;;;;5068090;28;20032;-85
2021/01/28 15:22:22;;;;;;;20.67;2.45;;;;;;;;;;5070181;28;20032;-85
2021/01/28 15:24:49;;;;;;;16.58;3.38;;;;;;;;;;5068550;28;20033;-84
2021/01/28 15:27:17;;;;;;;14.95;2.80;;;;;;;;;;5069763;28;20056;-84
2021/01/28 15:29:44;;;;;;;10.15;1.50;;;;;;;;;;5072280;28;20123;-84
2021/01/28 15:32:11;;;;;;;18.27;3.15;;;;;;;;;;5079198;22;20070;-83
2021/01/28 15:34:39;;;;;;;16.48;2.97;;;;;;;;;;5070441;22;20169;-85
2021/01/28 15:37:07;;;;;;;15.75;2.97;;;;;;;;;;5069581;22;20107;-84
2021/01/28 15:39:34;;;;;;;16.15;3.05;;;;;;;;;;5030966;28;20067;-84
2021/01/28 15:42:01;;;;;;;14.07;2.33;;;;;;;;;;5071000;22;20517;-84
2021/01/28 15:44:28;;;;;;;15.85;2.17;;;;;;;;;;5071221;28;20036;-84
2021/01/28 15:46:56;;;;;;;10.20;1.92;;;;;;;;;;5058665;28;20095;-82
2021/01/28 15:49:23;;;;;;;17.63;2.50;;;;;;;;;;5085124;22;20049;-81
2021/01/28 15:51:50;;;;;;;14.43;2.45;;;;;;;;;;5059047;28;20052;-82
2021/01/28 15:54:17;;;;;;;13.70;2.10;;;;;;;;;;5066760;28;20040;-82
2021/01/28 15:56:44;;;;;;;12.30;2.05;;;;;;;;;;5054681;28;20060;-82
2021/01/28 15:59:12;;;;;;;16.30;2.35;;;;;;;;;;5063122;28;20032;-82
2021/01/28 16:01:39;;;;;;;13.50;2.22;;;;;;;;;;5069601;28;20037;-82
2021/01/28 16:04:06;;;;;;;12.77;1.92;;;;;;;;;;5072081;28;20052;-82
2021/01/28 16:06:33;;;;;;;13.70;2.83;;;;;;;;;;5084338;22;20457;-82
2021/01/28 16:09:00;;;;;;;16.77;2.83;;;;;;;;;;5071676;28;20127;-82
2021/01/28 16:11:27;;;;;;;17.15;2.85;;;;;;;;;;5069425;28;20028;-81
2021/01/28 16:13:54;;;;;;;17.65;2.55;;;;;;;;;;5071120;28;20539;-81
2021/01/28 16:16:21;;;;;;;20.95;2.95;;;;;;;;;;5067332;28;20040;-81
2021/01/28 16:18:49;;;;;;;19.30;2.53;;;;;;;;;;5071116;28;20040;-81
2021/01/28 16:21:16;;;;;;;14.85;2.35;;;;;;;;;;5069274;28;20039;-81
2021/01/28 16:23:43;;;;;;;23.65;2.60;;;;;;;;;;5071008;28;20513;-82
2021/01/28 16:26:10;;;;;;;21.30;2.97;;;;;;;;;;5068463;28;20313;-81
2021/01/28 16:28:37;;;;;;;21.00;2.63;;;;;;;;;;5071983;28;20039;-81
2021/01/28 16:31:04;;;;;;;22.58;3.05;;;;;;;;;;5069703;28;20028;-81
2021/01/28 16:33:31;;;;;;;16.33;2.67;;;;;;;;;;5070908;28;20075;-81
2021/01/28 16:35:58;;;;;;;22.35;3.05;;;;;;;;;;5069139;28;20053;-81
2021/01/28 16:38:26;;;;;;;18.95;2.95;;;;;;;;;;5080141;22;20040;-78
2021/01/28 16:40:53;;;;;;;15.77;2.75;;;;;;;;;;5067855;28;20028;-81
2021/01/28 16:43:20;;;;;;;23.23;2.50;;;;;;;;;;5070356;28;20036;-81
2021/01/28 16:45:49;;;;;;;25.52;3.28;;;;;;;;;;5068971;28;20060;-81
2021/01/28 16:48:17;;;;;;;27.52;3.55;;;;;;;;;;5071122;28;20541;-81
2021/01/28 16:50:45;;;;;;;32.33;4.82;;;;;;;;;;5066757;28;20087;-81
2021/01/28 16:53:12;;;;;;;27.38;3.08;;;;;;;;;;5070636;28;20087;-81
2021/01/28 16:55:40;;;;;;;21.73;2.60;;;;;;;;;;5065503;28;20107;-81
2021/01/28 16:58:07;;;;;;;32.05;4.00;;;;;;;;;;5063779;28;20033;-81
2021/01/28 17:00:34;;;;;;;22.10;3.30;;;;;;;;;;5066652;28;20032;-81
2021/01/28 17:03:01;;;;;;;26.92;4.03;;;;;;;;;;5067043;28;20036;-81
2021/01/28 17:05:28;;;;;;;23.20;3.45;;;;;;;;;;5067658;28;20033;-81
2021/01/28 17:07:56;;;;;;;21.08;3.63;;;;;;;;;;5066391;28;20426;-81
2021/01/28 17:10:23;;;;;;;27.10;4.03;;;;;;;;;;5067153;28;20048;-81
2021/01/28 17:12:50;;;;;;;23.00;3.38;;;;;;;;;;5052449;28;20106;-82
2021/01/28 17:15:19;;;;;;;20.48;2.72;;;;;;;;;;5062550;28;20103;-81
2021/01/28 17:17:46;;;;;;;32.45;3.58;;;;;;;;;;5071210;28;20083;-81
2021/01/28 17:20:16;;;;;;;24.48;3.75;;;;;;;;;;5074805;28;20029;-81
2021/01/28 17:22:43;;;;;;;27.17;3.15;;;;;;;;;;5073706;28;20036;-82
2021/01/28 17:25:10;;;;;;;22.98;3.10;;;;;;;;;;5074044;28;20094;-82
2021/01/28 17:27:38;;;;;;;22.92;3.33;;;;;;;;;;5071712;28;20143;-82
2021/01/28 17:30:07;;;;;;;25.35;3.15;;;;;;;;;;5074755;28;20040;-82
2021/01/28 17:32:34;;;;;;;19.20;3.47;;;;;;;;;;5070451;28;20091;-82
2021/01/28 17:35:01;;;;;;;19.00;3.40;;;;;;;;;;5069965;28;20493;-82
2021/01/28 17:37:28;;;;;;;19.73;2.55;;;;;;;;;;5071915;28;20043;-82
2021/01/28 17:39:55;;;;;;;15.95;3.15;;;;;;;;;;5080968;22;20053;-82
2021/01/28 17:42:22;;;;;;;16.13;3.17;;;;;;;;;;5078716;22;20061;-82
2021/01/28 17:44:50;;;;;;;23.15;3.22;;;;;;;;;;5080965;22;20082;-82
2021/01/28 17:47:17;;;;;;;24.27;3.15;;;;;;;;;;5071567;22;20036;-81
2021/01/28 17:49:44;;;;;;;22.02;2.45;;;;;;;;;;5052914;28;20048;-82
2021/01/28 17:52:11;;;;;;;14.20;2.20;;;;;;;;;;5067589;28;20035;-82
2021/01/28 17:54:38;;;;;;;14.70;2.10;;;;;;;;;;5071292;28;20524;-82
2021/01/28 17:57:05;;;;;;;20.10;4.03;;;;;;;;;;5060732;22;20190;-83
2021/01/28 17:59:32;;;;;;;17.92;2.70;;;;;;;;;;5073460;28;20033;-83
2021/01/28 18:01:59;;;;;;;19.75;2.42;;;;;;;;;;5070729;28;20032;-82
2021/01/28 18:04:27;;;;;;;14.95;2.17;;;;;;;;;;5053885;28;20055;-82
2021/01/28 18:06:54;;;;;;;13.93;1.95;;;;;;;;;;5054193;28;20110;-82
2021/01/28 18:09:21;;;;;;;10.68;2.08;;;;;;;;;;5071163;28;20032;-82
2021/01/28 18:11:53;;;;;;;19.65;2.65;;;;;;;;;;5071632;28;20041;-82
2021/01/28 18:14:24;;;;;;;15.32;2.97;;;;;;;;;;5063031;22;20076;-82
2021/01/28 18:16:51;;;;;;;21.23;2.38;;;;;;;;;;5072337;28;20047;-82
2021/01/28 18:19:19;;;;;;;13.80;2.15;;;;;;;;;;5067049;28;20033;-83
2021/01/28 18:21:46;;;;;;;24.30;3.22;;;;;;;;;;5072153;28;20039;-82
2021/01/28 18:24:17;;;;;;;15.90;2.35;;;;;;;;;;5055048;28;20090;-82
2021/01/28 18:26:45;;;;;;;14.27;1.80;;;;;;;;;;5062014;28;20040;-82
2021/01/28 18:29:13;;;;;;;19.05;3.08;;;;;;;;;;5070765;28;20040;-82
2021/01/28 18:31:40;;;;;;;18.58;2.10;;;;;;;;;;5072562;28;20032;-81
2021/01/28 18:34:08;;;;;;;20.55;2.17;;;;;;;;;;5073459;28;20100;-82
2021/01/28 18:36:35;;;;;;;16.15;2.00;;;;;;;;;;5062831;28;20614;-81
2021/01/28 18:39:03;;;;;;;16.75;2.97;;;;;;;;;;5052870;28;20029;-82
2021/01/28 18:41:30;;;;;;;17.77;1.98;;;;;;;;;;5053734;28;20037;-83
2021/01/28 18:43:57;;;;;;;21.05;2.88;;;;;;;;;;5053334;28;20120;-83
2021/01/28 18:46:24;;;;;;;18.13;2.72;;;;;;;;;;5067361;22;20052;-83
2021/01/28 18:48:54;;;;;;;21.65;2.55;;;;;;;;;;5032984;28;20091;-83
2021/01/28 18:51:22;;;;;;;16.67;1.90;;;;;;;;;;5031179;28;20156;-83
2021/01/28 18:53:50;;;;;;;19.38;2.20;;;;;;;;;;5014917;28;20030;-84
2021/01/28 18:56:17;;;;;;;16.75;3.03;;;;;;;;;;5015474;28;20052;-85
2021/01/28 18:58:44;;;;;;;23.23;4.80;;;;;;;;;;5022358;28;20479;-84
2021/01/28 19:01:12;;;;;;;18.95;3.38;;;;;;;;;;5025106;28;20037;-85
2021/01/28 19:03:39;;;;;;;21.30;2.72;;;;;;;;;;5033014;28;20037;-85
2021/01/28 19:06:06;;;;;;;20.50;3.47;;;;;;;;;;5030184;28;20036;-84
2021/01/28 19:08:34;;;;;;;18.63;3.28;;;;;;;;;;5032245;28;20502;-83
2021/01/28 19:11:01;;;;;;;18.65;2.35;;;;;;;;;;5021591;28;20033;-83
2021/01/28 19:13:28;;;;;;;26.63;4.30;;;;;;;;;;5031907;28;20039;-83
2021/01/28 19:15:55;;;;;;;19.20;3.58;;;;;;;;;;5010530;28;20069;-83
2021/01/28 19:18:23;;;;;;;21.10;4.03;;;;;;;;;;5024536;28;20069;-82
2021/01/28 19:20:50;;;;;;;20.45;2.22;;;;;;;;;;5023126;28;20037;-82
2021/01/28 19:23:18;;;;;;;24.35;3.30;;;;;;;;;;5026721;28;20044;-82
2021/01/28 19:25:45;;;;;;;26.67;3.70;;;;;;;;;;5030482;28;20029;-82
2021/01/28 19:28:13;;;;;;;20.35;2.50;;;;;;;;;;5012768;28;20037;-82
2021/01/28 19:30:41;;;;;;;20.45;2.92;;;;;;;;;;5026605;28;20060;-82
2021/01/28 19:33:09;;;;;;;22.60;2.80;;;;;;;;;;5030470;28;20172;-82
2021/01/28 19:35:40;;;;;;;17.48;3.17;;;;;;;;;;5029512;28;20042;-82
2021/01/28 19:38:08;;;;;;;25.25;3.35;;;;;;;;;;5038016;28;20450;-82
2021/01/28 19:40:36;;;;;;;22.48;2.97;;;;;;;;;;5028661;28;20064;-83
2021/01/28 19:43:04;;;;;;;16.65;2.85;;;;;;;;;;5029334;28;20464;-81
2021/01/28 19:45:32;;;;;;;21.83;3.08;;;;;;;;;;5028175;28;20055;-83
2021/01/28 19:47:59;;;;;;;23.60;4.30;;;;;;;;;;5077703;22;20045;-86
2021/01/28 19:50:29;;;;;;;27.33;3.33;;;;;;;;;;5089844;22;20053;-84
2021/01/28 19:52:56;;;;;;;25.75;3.28;;;;;;;;;;5071495;28;20043;-84
2021/01/28 19:55:24;;;;;;;31.00;3.55;;;;;;;;;;5075684;22;20167;-84
2021/01/28 19:57:51;;;;;;;24.33;3.53;;;;;;;;;;5071581;28;20072;-84
2021/01/28 20:00:19;;;;;;;21.40;4.65;;;;;;;;;;5070480;28;20025;-85
2021/01/28 20:02:49;;;;;;;24.17;3.60;;;;;;;;;;5054300;28;20509;-84
2021/01/28 20:05:17;;;;;;;26.85;4.85;;;;;;;;;;5085286;22;20048;-84
2021/01/28 20:07:47;;;;;;;20.42;3.50;;;;;;;;;;5060360;28;20132;-84
2021/01/28 20:10:15;;;;;;;17.55;3.28;;;;;;;;;;5051746;28;20562;-84
2021/01/28 20:12:42;;;;;;;23.38;3.53;;;;;;;;;;5068820;28;20043;-84
2021/01/28 20:15:11;;;;;;;22.50;3.67;;;;;;;;;;5053167;28;20119;-82
2021/01/28 20:17:38;;;;;;;25.50;3.58;;;;;;;;;;5069510;28;20507;-82
2021/01/28 20:20:05;;;;;;;21.98;2.95;;;;;;;;;;5062169;22;20140;-81
2021/01/28 20:22:33;;;;;;;22.75;3.35;;;;;;;;;;5029798;28;20562;-82
2021/01/28 20:25:00;;;;;;;28.40;3.85;;;;;;;;;;5014239;28;20522;-82
2021/01/28 20:27:27;;;;;;;22.08;3.50;;;;;;;;;;5030170;28;20092;-82
2021/01/28 20:29:54;;;;;;;24.35;4.53;;;;;;;;;;5031622;28;20026;-82
2021/01/28 20:32:22;;;;;;;30.63;4.78;;;;;;;;;;5029358;28;20052;-82
2021/01/28 20:34:49;;;;;;;31.13;5.28;;;;;;;;;;5031847;28;20044;-82
2021/01/28 20:37:16;;;;;;;21.23;3.60;;;;;;;;;;5029043;28;20099;-84
2021/01/28 20:39:44;;;;;;;24.45;4.68;;;;;;;;;;5031726;28;20060;-83
2021/01/28 20:42:11;;;;;;;26.15;4.18;;;;;;;;;;5028787;28;20048;-84
2021/01/28 20:44:39;;;;;;;23.08;4.75;;;;;;;;;;5030290;28;20080;-83
2021/01/28 20:47:06;;;;;;;20.70;2.90;;;;;;;;;;5029054;28;20033;-86
2021/01/28 20:49:33;;;;;;;17.88;3.53;;;;;;;;;;5028503;28;20495;-84
2021/01/28 20:52:04;;;;;;;25.73;4.05;;;;;;;;;;5029246;28;20522;-83
2021/01/28 20:54:32;;;;;;;21.67;3.30;;;;;;;;;;5042078;22;20665;-82
2021/01/28 20:57:02;;;;;;;27.17;3.35;;;;;;;;;;5032426;28;20488;-82
2021/01/28 20:59:29;;;;;;;24.15;2.97;;;;;;;;;;5035665;28;20036;-80
2021/01/28 21:01:56;;;;;;;13.13;3.00;;;;;;;;;;5033159;28;20057;-82
2021/01/28 21:04:23;;;;;;;17.42;2.50;;;;;;;;;;5035396;28;20037;-83
2021/01/28 21:06:51;;;;;;;22.58;3.20;;;;;;;;;;5015535;28;20128;-82
2021/01/28 21:09:18;;;;;;;16.23;3.00;;;;;;;;;;5035124;28;20228;-85
2021/01/28 21:11:45;;;;;;;31.67;4.97;;;;;;;;;;5033240;28;20036;-82
2021/01/28 21:14:13;;;;;;;23.73;4.13;;;;;;;;;;5029399;28;20037;-82
2021/01/28 21:16:40;;;;;;;26.80;3.75;;;;;;;;;;5042952;28;20044;-84
2021/01/28 21:19:07;;;;;;;30.38;4.80;;;;;;;;;;5039541;28;20057;-83
2021/01/28 21:21:34;;;;;;;22.23;4.03;;;;;;;;;;5041723;28;20032;-83
2021/01/28 21:24:02;;;;;;;23.67;3.47;;;;;;;;;;5035388;28;20095;-80
2021/01/28 21:26:30;;;;;;;32.53;3.45;;;;;;;;;;5031401;28;20040;-81
2021/01/28 21:28:57;;;;;;;23.00;3.85;;;;;;;;;;5031759;28;20036;-81
2021/01/28 21:31:24;;;;;;;26.67;3.35;;;;;;;;;;5030193;28;20430;-83
2021/01/28 21:33:51;;;;;;;31.30;4.25;;;;;;;;;;5033564;28;20041;-85
2021/01/28 21:36:18;;;;;;;31.40;4.18;;;;;;;;;;5032090;28;20045;-85
2021/01/28 21:38:46;;;;;;;32.47;4.65;;;;;;;;;;5021842;28;20046;-84
2021/01/28 21:41:13;;;;;;;21.50;3.80;;;;;;;;;;5035619;28;20124;-83
2021/01/28 21:43:41;;;;;;;30.30;4.35;;;;;;;;;;5029267;28;20048;-85
2021/01/28 21:46:08;;;;;;;29.50;4.22;;;;;;;;;;5031083;28;20132;-83
2021/01/28 21:48:36;;;;;;;33.50;4.15;;;;;;;;;;5033759;28;20038;-86
2021/01/28 21:51:03;;;;;;;33.33;5.45;;;;;;;;;;5032130;28;20032;-84
2021/01/28 21:55:56;;;;;;;26.02;4.20;;;;;;;;;;5080293;22;20052;-86
2021/01/28 21:58:24;;;;;;;25.42;4.07;;;;;;;;;;5074110;22;20166;-84
2021/01/28 22:00:52;;;;;;;22.45;4.32;;;;;;;;;;5072144;28;20032;-84
2021/01/28 22:03:20;;;;;;;25.23;3.58;;;;;;;;;;5080747;22;20048;-84
2021/01/28 22:05:48;;;;;;;20.23;3.00;;;;;;;;;;5040942;28;20071;-86
2021/01/28 22:08:15;;;;;;;32.33;4.30;;;;;;;;;;5054005;28;20442;-86